sensor_id;sensor_type;location;lat;lon;timestamp;temperature;humidity
56861;DHT22;42744;51.094;3.490;2022-07-29T00:00:53;17.50;99.90
56861;DHT22;42744;51.094;3.490;2022-07-29T00:03:20;17.60;99.90
56861;DHT22;42744;51.094;3.490;2022-07-29T00:05:45;17.50;99.90
56861;DHT22;42744;51.094;3.490;2022-07-29T00:08:11;17.50;99.90
56861;DHT22;42744;51.094;3.490;2022-07-29T00:10:38;17.50;99.90
56861;DHT22;42744;51.094;3.490;2022-07-29T00:13:04;17.50;99.90
56861;DHT22;42744;51.094;3.490;2022-07-29T00:15:30;17.50;99.90
56861;DHT22;42744;51.094;3.490;2022-07-29T00:17:56;17.50;99.90
56861;DHT22;42744;51.094;3.490;2022-07-29T00:20:22;17.50;99.90
56861;DHT22;42744;51.094;3.490;2022-07-29T00:22:47;17.50;99.90
56861;DHT22;42744;51.094;3.490;2022-07-29T00:25:14;17.40;99.90
56861;DHT22;42744;51.094;3.490;2022-07-29T00:27:39;17.40;99.90
56861;DHT22;42744;51.094;3.490;2022-07-29T00:30:06;17.50;99.90
56861;DHT22;42744;51.094;3.490;2022-07-29T00:32:33;17.40;99.90
56861;DHT22;42744;51.094;3.490;2022-07-29T00:34:59;17.30;99.90
56861;DHT22;42744;51.094;3.490;2022-07-29T00:37:44;17.30;99.90
56861;DHT22;42744;51.094;3.490;2022-07-29T00:40:10;17.30;99.90
56861;DHT22;42744;51.094;3.490;2022-07-29T00:42:47;17.20;99.90
56861;DHT22;42744;51.094;3.490;2022-07-29T00:45:14;17.10;99.90
56861;DHT22;42744;51.094;3.490;2022-07-29T00:47:40;17.10;99.90
56861;DHT22;42744;51.094;3.490;2022-07-29T00:50:08;17.10;99.90
56861;DHT22;42744;51.094;3.490;2022-07-29T00:52:38;16.90;99.90
56861;DHT22;42744;51.094;3.490;2022-07-29T00:55:06;16.80;99.90
56861;DHT22;42744;51.094;3.490;2022-07-29T00:57:33;16.80;99.90
56861;DHT22;42744;51.094;3.490;2022-07-29T00:59:59;16.70;99.90
56861;DHT22;42744;51.094;3.490;2022-07-29T01:02:25;16.60;99.90
56861;DHT22;42744;51.094;3.490;2022-07-29T01:04:51;16.60;99.90
56861;DHT22;42744;51.094;3.490;2022-07-29T01:07:18;16.50;99.90
56861;DHT22;42744;51.094;3.490;2022-07-29T01:09:46;16.40;99.90
56861;DHT22;42744;51.094;3.490;2022-07-29T01:12:15;16.30;99.90
56861;DHT22;42744;51.094;3.490;2022-07-29T01:14:42;16.30;99.90
56861;DHT22;42744;51.094;3.490;2022-07-29T01:17:13;16.20;99.90
56861;DHT22;42744;51.094;3.490;2022-07-29T01:22:28;16.10;99.90
56861;DHT22;42744;51.094;3.490;2022-07-29T01:29:58;15.90;99.90
56861;DHT22;42744;51.094;3.490;2022-07-29T01:32:31;15.90;99.90
56861;DHT22;42744;51.094;3.490;2022-07-29T01:35:18;15.90;99.90
56861;DHT22;42744;51.094;3.490;2022-07-29T01:37:55;15.80;99.90
56861;DHT22;42744;51.094;3.490;2022-07-29T01:40:29;15.80;99.90
56861;DHT22;42744;51.094;3.490;2022-07-29T01:42:58;15.70;99.90
56861;DHT22;42744;51.094;3.490;2022-07-29T01:45:37;15.70;99.90
56861;DHT22;42744;51.094;3.490;2022-07-29T01:51:02;15.60;99.90
56861;DHT22;42744;51.094;3.490;2022-07-29T01:53:37;15.60;99.90
56861;DHT22;42744;51.094;3.490;2022-07-29T01:56:06;15.50;99.90
56861;DHT22;42744;51.094;3.490;2022-07-29T01:58:36;15.50;99.90
56861;DHT22;42744;51.094;3.490;2022-07-29T02:01:04;15.50;99.90
56861;DHT22;42744;51.094;3.490;2022-07-29T02:03:31;15.50;99.90
56861;DHT22;42744;51.094;3.490;2022-07-29T02:05:59;15.40;99.90
56861;DHT22;42744;51.094;3.490;2022-07-29T02:08:27;15.40;99.90
56861;DHT22;42744;51.094;3.490;2022-07-29T02:10:55;15.40;99.90
56861;DHT22;42744;51.094;3.490;2022-07-29T02:13:23;15.30;99.90
56861;DHT22;42744;51.094;3.490;2022-07-29T02:15:51;15.30;99.90
56861;DHT22;42744;51.094;3.490;2022-07-29T02:18:20;15.30;99.90
56861;DHT22;42744;51.094;3.490;2022-07-29T02:20:50;15.30;99.90
56861;DHT22;42744;51.094;3.490;2022-07-29T02:23:21;15.20;99.90
56861;DHT22;42744;51.094;3.490;2022-07-29T02:25:57;15.20;99.90
56861;DHT22;42744;51.094;3.490;2022-07-29T02:28:27;15.10;99.90
56861;DHT22;42744;51.094;3.490;2022-07-29T02:30:58;15.10;99.90
56861;DHT22;42744;51.094;3.490;2022-07-29T02:33:29;15.00;99.90
56861;DHT22;42744;51.094;3.490;2022-07-29T02:35:56;14.90;99.90
56861;DHT22;42744;51.094;3.490;2022-07-29T02:38:25;14.90;99.90
56861;DHT22;42744;51.094;3.490;2022-07-29T02:41:15;14.90;99.90
56861;DHT22;42744;51.094;3.490;2022-07-29T02:43:43;14.90;99.90
56861;DHT22;42744;51.094;3.490;2022-07-29T02:46:15;14.90;99.90
56861;DHT22;42744;51.094;3.490;2022-07-29T02:48:54;14.80;99.90
56861;DHT22;42744;51.094;3.490;2022-07-29T02:51:28;14.80;99.90
56861;DHT22;42744;51.094;3.490;2022-07-29T02:54:01;14.80;99.90
56861;DHT22;42744;51.094;3.490;2022-07-29T02:56:33;14.80;99.90
56861;DHT22;42744;51.094;3.490;2022-07-29T02:59:10;14.80;99.90
56861;DHT22;42744;51.094;3.490;2022-07-29T03:01:39;14.80;99.90
56861;DHT22;42744;51.094;3.490;2022-07-29T03:04:08;14.70;99.90
56861;DHT22;42744;51.094;3.490;2022-07-29T03:06:35;14.70;99.90
56861;DHT22;42744;51.094;3.490;2022-07-29T03:09:04;14.70;99.90
56861;DHT22;42744;51.094;3.490;2022-07-29T03:11:34;14.70;99.90
56861;DHT22;42744;51.094;3.490;2022-07-29T03:14:00;14.60;99.90
56861;DHT22;42744;51.094;3.490;2022-07-29T03:16:29;14.60;99.90
56861;DHT22;42744;51.094;3.490;2022-07-29T03:18:56;14.50;99.90
56861;DHT22;42744;51.094;3.490;2022-07-29T03:21:22;14.50;99.90
56861;DHT22;42744;51.094;3.490;2022-07-29T03:23:48;14.50;99.90
56861;DHT22;42744;51.094;3.490;2022-07-29T03:26:14;14.40;99.90
56861;DHT22;42744;51.094;3.490;2022-07-29T03:28:40;14.40;99.90
56861;DHT22;42744;51.094;3.490;2022-07-29T03:31:06;14.30;99.90
56861;DHT22;42744;51.094;3.490;2022-07-29T03:33:32;14.30;99.90
56861;DHT22;42744;51.094;3.490;2022-07-29T03:35:58;14.30;99.90
56861;DHT22;42744;51.094;3.490;2022-07-29T03:38:27;14.20;99.90
56861;DHT22;42744;51.094;3.490;2022-07-29T03:41:01;14.10;99.90
56861;DHT22;42744;51.094;3.490;2022-07-29T03:43:35;14.10;99.90
56861;DHT22;42744;51.094;3.490;2022-07-29T03:46:04;14.10;99.90
56861;DHT22;42744;51.094;3.490;2022-07-29T03:48:38;14.10;99.90
56861;DHT22;42744;51.094;3.490;2022-07-29T03:51:06;14.10;99.90
56861;DHT22;42744;51.094;3.490;2022-07-29T03:53:32;14.10;99.90
56861;DHT22;42744;51.094;3.490;2022-07-29T03:56:01;14.00;99.90
56861;DHT22;42744;51.094;3.490;2022-07-29T03:58:28;14.00;99.90
56861;DHT22;42744;51.094;3.490;2022-07-29T04:00:56;13.90;99.90
56861;DHT22;42744;51.094;3.490;2022-07-29T04:03:23;13.80;99.90
56861;DHT22;42744;51.094;3.490;2022-07-29T04:06:03;13.70;99.90
56861;DHT22;42744;51.094;3.490;2022-07-29T04:08:32;13.70;99.90
56861;DHT22;42744;51.094;3.490;2022-07-29T04:10:59;13.70;99.90
56861;DHT22;42744;51.094;3.490;2022-07-29T04:13:25;13.70;99.90
56861;DHT22;42744;51.094;3.490;2022-07-29T04:15:52;13.70;99.90
56861;DHT22;42744;51.094;3.490;2022-07-29T04:18:18;13.70;99.90
56861;DHT22;42744;51.094;3.490;2022-07-29T04:20:44;13.60;99.90
56861;DHT22;42744;51.094;3.490;2022-07-29T04:23:13;13.60;99.90
56861;DHT22;42744;51.094;3.490;2022-07-29T04:25:40;13.50;99.90
56861;DHT22;42744;51.094;3.490;2022-07-29T04:28:07;13.50;99.90
56861;DHT22;42744;51.094;3.490;2022-07-29T04:30:34;13.50;99.90
56861;DHT22;42744;51.094;3.490;2022-07-29T04:33:01;13.50;99.90
56861;DHT22;42744;51.094;3.490;2022-07-29T04:35:33;13.40;99.90
56861;DHT22;42744;51.094;3.490;2022-07-29T04:38:04;13.40;99.90
56861;DHT22;42744;51.094;3.490;2022-07-29T04:40:30;13.40;99.90
56861;DHT22;42744;51.094;3.490;2022-07-29T04:42:59;13.40;99.90
56861;DHT22;42744;51.094;3.490;2022-07-29T04:45:35;13.50;99.90
56861;DHT22;42744;51.094;3.490;2022-07-29T04:48:01;13.50;99.90
56861;DHT22;42744;51.094;3.490;2022-07-29T04:50:29;13.60;99.90
56861;DHT22;42744;51.094;3.490;2022-07-29T04:52:55;13.60;99.90
56861;DHT22;42744;51.094;3.490;2022-07-29T04:55:21;13.60;99.90
56861;DHT22;42744;51.094;3.490;2022-07-29T04:57:47;13.50;99.90
56861;DHT22;42744;51.094;3.490;2022-07-29T05:00:13;13.50;99.90
56861;DHT22;42744;51.094;3.490;2022-07-29T05:02:39;13.40;99.90
56861;DHT22;42744;51.094;3.490;2022-07-29T05:05:06;13.50;99.90
56861;DHT22;42744;51.094;3.490;2022-07-29T05:07:32;13.50;99.90
56861;DHT22;42744;51.094;3.490;2022-07-29T05:10:01;13.50;99.90
56861;DHT22;42744;51.094;3.490;2022-07-29T05:12:27;13.60;99.90
56861;DHT22;42744;51.094;3.490;2022-07-29T05:14:56;13.60;99.90
56861;DHT22;42744;51.094;3.490;2022-07-29T05:17:24;13.60;99.90
56861;DHT22;42744;51.094;3.490;2022-07-29T05:19:53;13.70;99.90
56861;DHT22;42744;51.094;3.490;2022-07-29T05:22:23;13.70;99.90
56861;DHT22;42744;51.094;3.490;2022-07-29T05:24:48;13.70;99.90
56861;DHT22;42744;51.094;3.490;2022-07-29T05:27:15;13.80;99.90
56861;DHT22;42744;51.094;3.490;2022-07-29T05:29:40;13.80;99.90
56861;DHT22;42744;51.094;3.490;2022-07-29T05:32:06;13.90;99.90
56861;DHT22;42744;51.094;3.490;2022-07-29T05:34:32;14.00;99.90
56861;DHT22;42744;51.094;3.490;2022-07-29T05:36:59;14.10;99.90
56861;DHT22;42744;51.094;3.490;2022-07-29T05:39:24;14.10;99.90
56861;DHT22;42744;51.094;3.490;2022-07-29T05:41:51;14.20;99.90
56861;DHT22;42744;51.094;3.490;2022-07-29T05:44:17;14.30;99.90
56861;DHT22;42744;51.094;3.490;2022-07-29T05:46:43;14.30;99.90
56861;DHT22;42744;51.094;3.490;2022-07-29T05:49:11;14.40;99.90
56861;DHT22;42744;51.094;3.490;2022-07-29T05:51:37;14.50;99.90
56861;DHT22;42744;51.094;3.490;2022-07-29T05:54:03;14.50;99.90
56861;DHT22;42744;51.094;3.490;2022-07-29T05:56:29;14.60;99.90
56861;DHT22;42744;51.094;3.490;2022-07-29T05:58:55;14.70;99.90
56861;DHT22;42744;51.094;3.490;2022-07-29T06:01:21;14.80;99.90
56861;DHT22;42744;51.094;3.490;2022-07-29T06:03:47;14.90;99.90
56861;DHT22;42744;51.094;3.490;2022-07-29T06:06:13;15.00;99.90
56861;DHT22;42744;51.094;3.490;2022-07-29T06:08:39;15.10;99.90
56861;DHT22;42744;51.094;3.490;2022-07-29T06:11:06;15.20;99.90
56861;DHT22;42744;51.094;3.490;2022-07-29T06:13:33;15.30;99.90
56861;DHT22;42744;51.094;3.490;2022-07-29T06:15:59;15.40;99.90
56861;DHT22;42744;51.094;3.490;2022-07-29T06:18:25;15.40;99.90
56861;DHT22;42744;51.094;3.490;2022-07-29T06:20:51;15.50;99.90
56861;DHT22;42744;51.094;3.490;2022-07-29T06:23:17;15.60;99.90
56861;DHT22;42744;51.094;3.490;2022-07-29T06:25:44;15.70;99.90
56861;DHT22;42744;51.094;3.490;2022-07-29T06:28:10;15.90;99.90
56861;DHT22;42744;51.094;3.490;2022-07-29T06:30:36;16.00;99.90
56861;DHT22;42744;51.094;3.490;2022-07-29T06:33:02;16.10;99.90
56861;DHT22;42744;51.094;3.490;2022-07-29T06:35:28;16.20;99.90
56861;DHT22;42744;51.094;3.490;2022-07-29T06:37:54;16.30;99.90
56861;DHT22;42744;51.094;3.490;2022-07-29T06:40:21;16.40;99.90
56861;DHT22;42744;51.094;3.490;2022-07-29T06:43:08;16.50;99.90
56861;DHT22;42744;51.094;3.490;2022-07-29T06:45:34;16.60;99.90
56861;DHT22;42744;51.094;3.490;2022-07-29T06:48:00;16.60;99.90
56861;DHT22;42744;51.094;3.490;2022-07-29T06:50:26;16.70;99.90
56861;DHT22;42744;51.094;3.490;2022-07-29T06:52:53;16.70;99.90
56861;DHT22;42744;51.094;3.490;2022-07-29T06:55:19;16.80;99.90
56861;DHT22;42744;51.094;3.490;2022-07-29T06:57:47;16.80;99.90
56861;DHT22;42744;51.094;3.490;2022-07-29T07:00:14;16.90;99.90
56861;DHT22;42744;51.094;3.490;2022-07-29T07:02:39;17.00;99.90
56861;DHT22;42744;51.094;3.490;2022-07-29T07:05:06;17.10;99.90
56861;DHT22;42744;51.094;3.490;2022-07-29T07:07:32;17.10;99.90
56861;DHT22;42744;51.094;3.490;2022-07-29T07:09:58;17.30;99.90
56861;DHT22;42744;51.094;3.490;2022-07-29T07:12:24;17.40;99.90
56861;DHT22;42744;51.094;3.490;2022-07-29T07:14:51;17.40;99.90
56861;DHT22;42744;51.094;3.490;2022-07-29T07:17:16;17.40;99.90
56861;DHT22;42744;51.094;3.490;2022-07-29T07:19:42;17.50;99.90
56861;DHT22;42744;51.094;3.490;2022-07-29T07:22:09;17.50;99.90
56861;DHT22;42744;51.094;3.490;2022-07-29T07:24:34;17.60;99.90
56861;DHT22;42744;51.094;3.490;2022-07-29T07:27:00;17.70;99.90
56861;DHT22;42744;51.094;3.490;2022-07-29T07:29:27;17.80;99.90
56861;DHT22;42744;51.094;3.490;2022-07-29T07:31:52;17.80;99.90
56861;DHT22;42744;51.094;3.490;2022-07-29T07:34:18;17.80;99.90
56861;DHT22;42744;51.094;3.490;2022-07-29T07:36:44;17.90;99.90
56861;DHT22;42744;51.094;3.490;2022-07-29T07:39:13;17.90;99.90
56861;DHT22;42744;51.094;3.490;2022-07-29T07:41:39;18.00;99.90
56861;DHT22;42744;51.094;3.490;2022-07-29T07:44:05;18.10;99.90
56861;DHT22;42744;51.094;3.490;2022-07-29T07:46:31;18.10;99.90
56861;DHT22;42744;51.094;3.490;2022-07-29T07:48:57;18.20;99.90
56861;DHT22;42744;51.094;3.490;2022-07-29T07:51:30;18.30;99.90
56861;DHT22;42744;51.094;3.490;2022-07-29T07:53:55;18.30;99.90
56861;DHT22;42744;51.094;3.490;2022-07-29T07:56:22;18.40;99.90
56861;DHT22;42744;51.094;3.490;2022-07-29T07:58:48;18.50;99.90
56861;DHT22;42744;51.094;3.490;2022-07-29T08:01:14;18.60;99.90
56861;DHT22;42744;51.094;3.490;2022-07-29T08:03:43;18.70;99.90
56861;DHT22;42744;51.094;3.490;2022-07-29T08:06:09;18.80;99.90
56861;DHT22;42744;51.094;3.490;2022-07-29T08:08:35;19.00;99.90
56861;DHT22;42744;51.094;3.490;2022-07-29T08:11:01;19.00;99.90
56861;DHT22;42744;51.094;3.490;2022-07-29T08:13:31;19.10;99.90
56861;DHT22;42744;51.094;3.490;2022-07-29T08:15:58;19.20;99.90
56861;DHT22;42744;51.094;3.490;2022-07-29T08:18:39;19.30;99.90
56861;DHT22;42744;51.094;3.490;2022-07-29T08:21:06;19.50;99.90
56861;DHT22;42744;51.094;3.490;2022-07-29T08:23:32;19.60;99.90
56861;DHT22;42744;51.094;3.490;2022-07-29T08:26:09;19.60;99.90
56861;DHT22;42744;51.094;3.490;2022-07-29T08:28:43;19.70;99.90
56861;DHT22;42744;51.094;3.490;2022-07-29T08:31:12;19.90;99.90
56861;DHT22;42744;51.094;3.490;2022-07-29T08:33:38;20.10;99.90
56861;DHT22;42744;51.094;3.490;2022-07-29T08:36:05;20.10;99.90
56861;DHT22;42744;51.094;3.490;2022-07-29T08:38:32;20.10;99.90
56861;DHT22;42744;51.094;3.490;2022-07-29T08:40:59;20.10;99.90
56861;DHT22;42744;51.094;3.490;2022-07-29T08:43:28;20.30;99.90
56861;DHT22;42744;51.094;3.490;2022-07-29T08:45:54;20.40;99.90
56861;DHT22;42744;51.094;3.490;2022-07-29T08:48:24;20.60;99.90
56861;DHT22;42744;51.094;3.490;2022-07-29T08:50:56;20.60;99.90
56861;DHT22;42744;51.094;3.490;2022-07-29T08:53:25;20.70;99.90
56861;DHT22;42744;51.094;3.490;2022-07-29T08:55:52;20.80;99.90
56861;DHT22;42744;51.094;3.490;2022-07-29T08:58:19;20.90;99.90
56861;DHT22;42744;51.094;3.490;2022-07-29T09:00:53;21.00;99.90
56861;DHT22;42744;51.094;3.490;2022-07-29T09:03:22;21.00;99.90
56861;DHT22;42744;51.094;3.490;2022-07-29T09:05:49;21.00;99.90
56861;DHT22;42744;51.094;3.490;2022-07-29T09:08:17;21.10;99.90
56861;DHT22;42744;51.094;3.490;2022-07-29T09:10:44;21.10;99.90
56861;DHT22;42744;51.094;3.490;2022-07-29T09:13:13;21.20;99.90
56861;DHT22;42744;51.094;3.490;2022-07-29T09:15:39;21.30;99.90
56861;DHT22;42744;51.094;3.490;2022-07-29T09:18:05;21.40;99.90
56861;DHT22;42744;51.094;3.490;2022-07-29T09:20:33;21.60;99.90
56861;DHT22;42744;51.094;3.490;2022-07-29T09:23:17;21.70;99.90
56861;DHT22;42744;51.094;3.490;2022-07-29T09:25:43;21.80;99.90
56861;DHT22;42744;51.094;3.490;2022-07-29T09:28:14;21.90;99.90
56861;DHT22;42744;51.094;3.490;2022-07-29T09:30:56;22.00;99.90
56861;DHT22;42744;51.094;3.490;2022-07-29T09:33:24;22.00;99.90
56861;DHT22;42744;51.094;3.490;2022-07-29T09:36:06;22.20;99.90
56861;DHT22;42744;51.094;3.490;2022-07-29T09:38:33;22.30;99.90
56861;DHT22;42744;51.094;3.490;2022-07-29T09:41:02;22.40;99.90
56861;DHT22;42744;51.094;3.490;2022-07-29T09:43:28;22.50;98.70
56861;DHT22;42744;51.094;3.490;2022-07-29T09:45:55;22.60;98.60
56861;DHT22;42744;51.094;3.490;2022-07-29T09:48:22;22.60;98.60
56861;DHT22;42744;51.094;3.490;2022-07-29T09:50:49;22.80;97.80
56861;DHT22;42744;51.094;3.490;2022-07-29T09:53:32;22.90;98.20
56861;DHT22;42744;51.094;3.490;2022-07-29T09:55:59;23.00;97.00
56861;DHT22;42744;51.094;3.490;2022-07-29T09:58:25;23.20;96.60
56861;DHT22;42744;51.094;3.490;2022-07-29T10:00:52;23.30;97.10
56861;DHT22;42744;51.094;3.490;2022-07-29T10:03:19;23.30;94.70
56861;DHT22;42744;51.094;3.490;2022-07-29T10:05:46;23.40;95.00
56861;DHT22;42744;51.094;3.490;2022-07-29T10:08:13;23.60;94.80
56861;DHT22;42744;51.094;3.490;2022-07-29T10:10:42;23.70;93.80
56861;DHT22;42744;51.094;3.490;2022-07-29T10:13:13;23.80;93.00
56861;DHT22;42744;51.094;3.490;2022-07-29T10:15:41;24.00;92.40
56861;DHT22;42744;51.094;3.490;2022-07-29T10:18:12;24.00;91.40
56861;DHT22;42744;51.094;3.490;2022-07-29T10:20:39;23.90;90.90
56861;DHT22;42744;51.094;3.490;2022-07-29T10:23:05;23.90;91.40
56861;DHT22;42744;51.094;3.490;2022-07-29T10:25:34;23.90;91.00
56861;DHT22;42744;51.094;3.490;2022-07-29T10:28:00;24.10;90.60
56861;DHT22;42744;51.094;3.490;2022-07-29T10:30:26;24.20;91.60
56861;DHT22;42744;51.094;3.490;2022-07-29T10:36:18;24.50;90.00
56861;DHT22;42744;51.094;3.490;2022-07-29T10:39:05;24.50;90.70
56861;DHT22;42744;51.094;3.490;2022-07-29T10:41:39;24.50;91.20
56861;DHT22;42744;51.094;3.490;2022-07-29T10:44:17;24.40;90.00
56861;DHT22;42744;51.094;3.490;2022-07-29T10:46:44;24.30;89.40
56861;DHT22;42744;51.094;3.490;2022-07-29T10:49:23;24.30;87.20
56861;DHT22;42744;51.094;3.490;2022-07-29T10:52:10;24.20;87.60
56861;DHT22;42744;51.094;3.490;2022-07-29T10:54:37;24.30;86.50
56861;DHT22;42744;51.094;3.490;2022-07-29T10:57:18;24.40;87.80
56861;DHT22;42744;51.094;3.490;2022-07-29T10:59:50;24.40;88.00
56861;DHT22;42744;51.094;3.490;2022-07-29T11:05:09;24.40;87.90
56861;DHT22;42744;51.094;3.490;2022-07-29T11:07:37;24.40;86.20
56861;DHT22;42744;51.094;3.490;2022-07-29T11:15:09;24.30;86.80
56861;DHT22;42744;51.094;3.490;2022-07-29T11:20:45;24.20;89.00
56861;DHT22;42744;51.094;3.490;2022-07-29T11:26:20;24.90;85.90
56861;DHT22;42744;51.094;3.490;2022-07-29T11:29:00;25.40;84.40
56861;DHT22;42744;51.094;3.490;2022-07-29T11:31:45;25.90;83.90
56861;DHT22;42744;51.094;3.490;2022-07-29T11:34:30;25.80;81.70
56861;DHT22;42744;51.094;3.490;2022-07-29T11:39:40;25.10;81.50
56861;DHT22;42744;51.094;3.490;2022-07-29T11:47:38;25.90;80.90
56861;DHT22;42744;51.094;3.490;2022-07-29T11:50:08;26.00;80.70
56861;DHT22;42744;51.094;3.490;2022-07-29T11:52:36;26.30;81.70
56861;DHT22;42744;51.094;3.490;2022-07-29T11:55:10;26.20;81.20
56861;DHT22;42744;51.094;3.490;2022-07-29T11:57:44;26.20;80.30
56861;DHT22;42744;51.094;3.490;2022-07-29T12:00:11;26.10;80.50
56861;DHT22;42744;51.094;3.490;2022-07-29T12:02:42;26.40;83.10
56861;DHT22;42744;51.094;3.490;2022-07-29T12:05:09;26.90;81.90
56861;DHT22;42744;51.094;3.490;2022-07-29T12:07:37;27.20;78.70
56861;DHT22;42744;51.094;3.490;2022-07-29T12:10:04;27.30;78.60
56861;DHT22;42744;51.094;3.490;2022-07-29T12:12:31;27.50;78.60
56861;DHT22;42744;51.094;3.490;2022-07-29T12:14:56;27.80;76.60
56861;DHT22;42744;51.094;3.490;2022-07-29T12:19:55;28.20;75.20
56861;DHT22;42744;51.094;3.490;2022-07-29T12:22:29;28.10;74.00
56861;DHT22;42744;51.094;3.490;2022-07-29T12:25:00;28.20;73.70
56861;DHT22;42744;51.094;3.490;2022-07-29T12:27:30;28.10;74.80
56861;DHT22;42744;51.094;3.490;2022-07-29T12:30:11;28.40;75.90
56861;DHT22;42744;51.094;3.490;2022-07-29T12:32:43;28.50;73.40
56861;DHT22;42744;51.094;3.490;2022-07-29T12:35:15;28.40;73.40
56861;DHT22;42744;51.094;3.490;2022-07-29T12:37:43;28.70;71.40
56861;DHT22;42744;51.094;3.490;2022-07-29T12:40:12;28.90;71.60
56861;DHT22;42744;51.094;3.490;2022-07-29T12:42:39;29.00;71.40
56861;DHT22;42744;51.094;3.490;2022-07-29T12:45:06;29.10;72.20
56861;DHT22;42744;51.094;3.490;2022-07-29T12:47:32;29.10;71.80
56861;DHT22;42744;51.094;3.490;2022-07-29T12:50:13;29.30;71.60
56861;DHT22;42744;51.094;3.490;2022-07-29T12:52:45;29.40;71.40
56861;DHT22;42744;51.094;3.490;2022-07-29T12:55:11;29.20;72.50
56861;DHT22;42744;51.094;3.490;2022-07-29T12:57:50;29.20;70.50
56861;DHT22;42744;51.094;3.490;2022-07-29T13:00:23;28.70;70.20
56861;DHT22;42744;51.094;3.490;2022-07-29T13:02:56;28.40;71.70
56861;DHT22;42744;51.094;3.490;2022-07-29T13:05:44;28.10;74.40
56861;DHT22;42744;51.094;3.490;2022-07-29T13:08:15;28.00;71.70
56861;DHT22;42744;51.094;3.490;2022-07-29T13:10:44;27.80;71.80
56861;DHT22;42744;51.094;3.490;2022-07-29T13:13:11;27.90;72.30
56861;DHT22;42744;51.094;3.490;2022-07-29T13:15:42;28.40;74.90
56861;DHT22;42744;51.094;3.490;2022-07-29T13:18:32;28.90;71.00
56861;DHT22;42744;51.094;3.490;2022-07-29T13:21:11;29.40;71.30
56861;DHT22;42744;51.094;3.490;2022-07-29T13:23:38;29.40;70.10
56861;DHT22;42744;51.094;3.490;2022-07-29T13:26:11;29.50;72.50
56861;DHT22;42744;51.094;3.490;2022-07-29T13:28:37;29.70;70.50
56861;DHT22;42744;51.094;3.490;2022-07-29T13:31:06;29.90;69.70
56861;DHT22;42744;51.094;3.490;2022-07-29T13:33:32;29.60;69.00
56861;DHT22;42744;51.094;3.490;2022-07-29T13:35:57;29.70;69.10
56861;DHT22;42744;51.094;3.490;2022-07-29T13:38:24;30.10;69.70
56861;DHT22;42744;51.094;3.490;2022-07-29T13:40:49;29.80;68.40
56861;DHT22;42744;51.094;3.490;2022-07-29T13:43:19;29.60;70.60
56861;DHT22;42744;51.094;3.490;2022-07-29T13:45:45;29.50;68.30
56861;DHT22;42744;51.094;3.490;2022-07-29T13:48:11;29.10;69.20
56861;DHT22;42744;51.094;3.490;2022-07-29T13:50:37;29.20;70.10
56861;DHT22;42744;51.094;3.490;2022-07-29T13:53:03;29.20;69.30
56861;DHT22;42744;51.094;3.490;2022-07-29T13:55:29;29.20;69.10
56861;DHT22;42744;51.094;3.490;2022-07-29T13:57:55;28.90;69.80
56861;DHT22;42744;51.094;3.490;2022-07-29T14:00:21;29.00;69.80
56861;DHT22;42744;51.094;3.490;2022-07-29T14:02:49;29.40;69.90
56861;DHT22;42744;51.094;3.490;2022-07-29T14:05:15;29.90;69.90
56861;DHT22;42744;51.094;3.490;2022-07-29T14:07:45;30.30;69.80
56861;DHT22;42744;51.094;3.490;2022-07-29T14:10:11;30.50;71.50
56861;DHT22;42744;51.094;3.490;2022-07-29T14:12:37;30.50;69.30
56861;DHT22;42744;51.094;3.490;2022-07-29T14:15:04;30.60;68.30
56861;DHT22;42744;51.094;3.490;2022-07-29T14:17:31;30.70;67.90
56861;DHT22;42744;51.094;3.490;2022-07-29T14:19:56;30.50;69.00
56861;DHT22;42744;51.094;3.490;2022-07-29T14:22:22;30.30;69.30
56861;DHT22;42744;51.094;3.490;2022-07-29T14:24:48;30.20;69.30
56861;DHT22;42744;51.094;3.490;2022-07-29T14:27:14;30.30;69.10
56861;DHT22;42744;51.094;3.490;2022-07-29T14:29:40;30.30;69.00
56861;DHT22;42744;51.094;3.490;2022-07-29T14:32:07;30.50;68.80
56861;DHT22;42744;51.094;3.490;2022-07-29T14:34:34;30.70;67.90
56861;DHT22;42744;51.094;3.490;2022-07-29T14:37:00;30.80;67.80
56861;DHT22;42744;51.094;3.490;2022-07-29T14:39:26;30.70;67.30
56861;DHT22;42744;51.094;3.490;2022-07-29T14:41:52;30.30;69.80
56861;DHT22;42744;51.094;3.490;2022-07-29T14:44:18;30.20;69.30
56861;DHT22;42744;51.094;3.490;2022-07-29T14:46:44;30.00;69.60
56861;DHT22;42744;51.094;3.490;2022-07-29T14:49:10;30.00;70.50
56861;DHT22;42744;51.094;3.490;2022-07-29T14:51:40;30.10;69.60
56861;DHT22;42744;51.094;3.490;2022-07-29T14:54:06;30.20;69.90
56861;DHT22;42744;51.094;3.490;2022-07-29T14:56:32;30.10;70.60
56861;DHT22;42744;51.094;3.490;2022-07-29T14:59:00;30.20;69.70
56861;DHT22;42744;51.094;3.490;2022-07-29T15:01:26;30.10;70.00
56861;DHT22;42744;51.094;3.490;2022-07-29T15:03:52;29.90;70.20
56861;DHT22;42744;51.094;3.490;2022-07-29T15:06:21;29.70;71.60
56861;DHT22;42744;51.094;3.490;2022-07-29T15:08:48;29.70;69.40
56861;DHT22;42744;51.094;3.490;2022-07-29T15:11:14;29.70;70.20
56861;DHT22;42744;51.094;3.490;2022-07-29T15:13:39;29.60;70.40
56861;DHT22;42744;51.094;3.490;2022-07-29T15:16:06;29.60;70.70
56861;DHT22;42744;51.094;3.490;2022-07-29T15:18:32;29.70;69.90
56861;DHT22;42744;51.094;3.490;2022-07-29T15:20:58;29.70;70.00
56861;DHT22;42744;51.094;3.490;2022-07-29T15:23:26;29.60;70.10
56861;DHT22;42744;51.094;3.490;2022-07-29T15:25:52;29.40;69.80
56861;DHT22;42744;51.094;3.490;2022-07-29T15:28:17;29.20;70.20
56861;DHT22;42744;51.094;3.490;2022-07-29T15:30:43;28.90;71.30
56861;DHT22;42744;51.094;3.490;2022-07-29T15:33:09;29.00;70.70
56861;DHT22;42744;51.094;3.490;2022-07-29T15:35:39;29.10;70.90
56861;DHT22;42744;51.094;3.490;2022-07-29T15:38:05;29.20;69.90
56861;DHT22;42744;51.094;3.490;2022-07-29T15:40:31;29.10;70.30
56861;DHT22;42744;51.094;3.490;2022-07-29T15:42:57;29.00;70.40
56861;DHT22;42744;51.094;3.490;2022-07-29T15:45:26;28.90;70.80
56861;DHT22;42744;51.094;3.490;2022-07-29T15:47:52;28.60;71.80
56861;DHT22;42744;51.094;3.490;2022-07-29T15:50:18;28.50;71.20
56861;DHT22;42744;51.094;3.490;2022-07-29T15:52:45;28.50;71.60
56861;DHT22;42744;51.094;3.490;2022-07-29T15:55:13;28.50;71.00
56861;DHT22;42744;51.094;3.490;2022-07-29T15:57:40;28.60;72.60
56861;DHT22;42744;51.094;3.490;2022-07-29T16:00:08;28.40;71.00
56861;DHT22;42744;51.094;3.490;2022-07-29T16:02:33;28.30;72.90
56861;DHT22;42744;51.094;3.490;2022-07-29T16:05:00;28.30;72.10
56861;DHT22;42744;51.094;3.490;2022-07-29T16:07:25;28.20;71.40
56861;DHT22;42744;51.094;3.490;2022-07-29T16:09:51;28.20;71.70
56861;DHT22;42744;51.094;3.490;2022-07-29T16:12:18;28.10;72.60
56861;DHT22;42744;51.094;3.490;2022-07-29T16:14:43;28.10;71.70
56861;DHT22;42744;51.094;3.490;2022-07-29T16:17:10;27.80;72.10